sensor_id;sensor_type;location;lat;lon;timestamp;P1;durP1;ratioP1;P2;durP2;ratioP2
5543;SDS011;2795;47.652;13.128;2023-04-06T00:00:33;14.23;;;5.70;;
5543;SDS011;2795;47.652;13.128;2023-04-06T00:03:00;21.23;;;6.80;;
5543;SDS011;2795;47.652;13.128;2023-04-06T00:05:26;14.43;;;6.33;;
5543;SDS011;2795;47.652;13.128;2023-04-06T00:07:54;16.77;;;6.83;;
5543;SDS011;2795;47.652;13.128;2023-04-06T00:10:22;17.30;;;6.27;;
5543;SDS011;2795;47.652;13.128;2023-04-06T00:12:48;11.40;;;6.03;;
5543;SDS011;2795;47.652;13.128;2023-04-06T00:15:15;15.50;;;6.00;;
5543;SDS011;2795;47.652;13.128;2023-04-06T00:17:42;15.83;;;5.63;;
5543;SDS011;2795;47.652;13.128;2023-04-06T00:20:08;13.43;;;5.40;;
5543;SDS011;2795;47.652;13.128;2023-04-06T00:22:35;14.73;;;5.70;;
5543;SDS011;2795;47.652;13.128;2023-04-06T00:25:02;17.73;;;6.60;;
5543;SDS011;2795;47.652;13.128;2023-04-06T00:27:29;18.73;;;6.33;;
5543;SDS011;2795;47.652;13.128;2023-04-06T00:29:55;15.27;;;6.43;;
5543;SDS011;2795;47.652;13.128;2023-04-06T00:32:22;18.70;;;5.83;;
5543;SDS011;2795;47.652;13.128;2023-04-06T00:34:49;13.70;;;6.07;;
5543;SDS011;2795;47.652;13.128;2023-04-06T00:37:15;19.43;;;6.80;;
5543;SDS011;2795;47.652;13.128;2023-04-06T00:39:42;13.73;;;6.40;;
5543;SDS011;2795;47.652;13.128;2023-04-06T00:42:12;13.77;;;5.53;;
5543;SDS011;2795;47.652;13.128;2023-04-06T00:44:42;21.30;;;6.40;;
5543;SDS011;2795;47.652;13.128;2023-04-06T00:47:09;20.63;;;7.00;;
5543;SDS011;2795;47.652;13.128;2023-04-06T00:49:36;16.93;;;6.03;;
5543;SDS011;2795;47.652;13.128;2023-04-06T00:52:03;17.43;;;6.30;;
5543;SDS011;2795;47.652;13.128;2023-04-06T00:54:30;15.73;;;5.67;;
5543;SDS011;2795;47.652;13.128;2023-04-06T00:56:57;16.97;;;6.47;;
5543;SDS011;2795;47.652;13.128;2023-04-06T00:59:24;16.37;;;6.00;;
5543;SDS011;2795;47.652;13.128;2023-04-06T01:01:51;67.40;;;10.77;;
5543;SDS011;2795;47.652;13.128;2023-04-06T01:04:18;12.93;;;5.90;;
5543;SDS011;2795;47.652;13.128;2023-04-06T01:06:44;16.73;;;6.40;;
5543;SDS011;2795;47.652;13.128;2023-04-06T01:09:11;22.00;;;6.77;;
5543;SDS011;2795;47.652;13.128;2023-04-06T01:11:38;18.30;;;7.07;;
5543;SDS011;2795;47.652;13.128;2023-04-06T01:14:04;16.33;;;6.07;;
5543;SDS011;2795;47.652;13.128;2023-04-06T01:16:31;17.33;;;5.93;;
5543;SDS011;2795;47.652;13.128;2023-04-06T01:18:58;14.70;;;6.70;;
5543;SDS011;2795;47.652;13.128;2023-04-06T01:21:25;18.17;;;6.63;;
5543;SDS011;2795;47.652;13.128;2023-04-06T01:23:51;16.07;;;7.30;;
5543;SDS011;2795;47.652;13.128;2023-04-06T01:26:18;15.60;;;7.60;;
5543;SDS011;2795;47.652;13.128;2023-04-06T01:28:45;13.97;;;6.60;;
5543;SDS011;2795;47.652;13.128;2023-04-06T01:31:11;16.80;;;7.50;;
5543;SDS011;2795;47.652;13.128;2023-04-06T01:33:38;16.90;;;6.50;;
5543;SDS011;2795;47.652;13.128;2023-04-06T01:36:05;19.63;;;7.10;;
5543;SDS011;2795;47.652;13.128;2023-04-06T01:38:31;17.47;;;7.17;;
5543;SDS011;2795;47.652;13.128;2023-04-06T01:40:58;16.43;;;5.90;;
5543;SDS011;2795;47.652;13.128;2023-04-06T01:43:25;24.33;;;8.40;;
5543;SDS011;2795;47.652;13.128;2023-04-06T01:45:51;24.83;;;7.17;;
5543;SDS011;2795;47.652;13.128;2023-04-06T01:48:18;28.30;;;7.43;;
5543;SDS011;2795;47.652;13.128;2023-04-06T01:50:45;15.83;;;6.33;;
5543;SDS011;2795;47.652;13.128;2023-04-06T01:53:11;18.40;;;7.47;;
5543;SDS011;2795;47.652;13.128;2023-04-06T01:55:38;16.77;;;5.93;;
5543;SDS011;2795;47.652;13.128;2023-04-06T01:58:05;20.50;;;8.07;;
5543;SDS011;2795;47.652;13.128;2023-04-06T02:00:31;11.37;;;6.13;;
5543;SDS011;2795;47.652;13.128;2023-04-06T02:02:58;17.03;;;5.90;;
5543;SDS011;2795;47.652;13.128;2023-04-06T02:05:25;20.70;;;6.80;;
5543;SDS011;2795;47.652;13.128;2023-04-06T02:07:52;20.90;;;6.80;;
5543;SDS011;2795;47.652;13.128;2023-04-06T02:10:18;21.00;;;6.67;;
5543;SDS011;2795;47.652;13.128;2023-04-06T02:12:45;12.90;;;6.00;;
5543;SDS011;2795;47.652;13.128;2023-04-06T02:15:12;11.67;;;6.13;;
5543;SDS011;2795;47.652;13.128;2023-04-06T02:17:39;15.83;;;7.23;;
5543;SDS011;2795;47.652;13.128;2023-04-06T02:20:07;11.77;;;5.73;;
5543;SDS011;2795;47.652;13.128;2023-04-06T02:22:34;17.23;;;6.83;;
5543;SDS011;2795;47.652;13.128;2023-04-06T02:25:01;19.23;;;6.13;;
5543;SDS011;2795;47.652;13.128;2023-04-06T02:27:28;19.30;;;7.07;;
5543;SDS011;2795;47.652;13.128;2023-04-06T02:29:55;15.83;;;6.10;;
5543;SDS011;2795;47.652;13.128;2023-04-06T02:32:21;16.10;;;6.50;;
5543;SDS011;2795;47.652;13.128;2023-04-06T02:34:48;10.93;;;5.97;;
5543;SDS011;2795;47.652;13.128;2023-04-06T02:37:14;14.53;;;6.60;;
5543;SDS011;2795;47.652;13.128;2023-04-06T02:39:41;20.60;;;7.03;;
5543;SDS011;2795;47.652;13.128;2023-04-06T02:42:08;23.50;;;6.97;;
5543;SDS011;2795;47.652;13.128;2023-04-06T02:44:34;23.63;;;7.10;;
5543;SDS011;2795;47.652;13.128;2023-04-06T02:47:01;17.00;;;6.80;;
5543;SDS011;2795;47.652;13.128;2023-04-06T02:49:27;16.80;;;6.43;;
5543;SDS011;2795;47.652;13.128;2023-04-06T02:51:54;18.60;;;6.30;;
5543;SDS011;2795;47.652;13.128;2023-04-06T02:54:21;16.50;;;5.87;;
5543;SDS011;2795;47.652;13.128;2023-04-06T02:56:47;21.33;;;6.90;;
5543;SDS011;2795;47.652;13.128;2023-04-06T02:59:14;18.23;;;6.80;;
5543;SDS011;2795;47.652;13.128;2023-04-06T03:01:41;20.43;;;5.83;;
5543;SDS011;2795;47.652;13.128;2023-04-06T03:04:07;15.53;;;5.70;;
5543;SDS011;2795;47.652;13.128;2023-04-06T03:06:34;15.33;;;6.00;;
5543;SDS011;2795;47.652;13.128;2023-04-06T03:09:01;10.90;;;4.43;;
5543;SDS011;2795;47.652;13.128;2023-04-06T03:11:28;11.20;;;5.47;;
5543;SDS011;2795;47.652;13.128;2023-04-06T03:13:54;16.33;;;5.53;;
5543;SDS011;2795;47.652;13.128;2023-04-06T03:16:21;15.50;;;6.00;;
5543;SDS011;2795;47.652;13.128;2023-04-06T03:18:48;18.73;;;6.97;;
5543;SDS011;2795;47.652;13.128;2023-04-06T03:21:14;14.03;;;5.80;;
5543;SDS011;2795;47.652;13.128;2023-04-06T03:23:41;14.47;;;5.97;;
5543;SDS011;2795;47.652;13.128;2023-04-06T03:26:08;17.77;;;6.03;;
5543;SDS011;2795;47.652;13.128;2023-04-06T03:28:36;15.97;;;6.27;;
5543;SDS011;2795;47.652;13.128;2023-04-06T03:31:02;17.50;;;5.80;;
5543;SDS011;2795;47.652;13.128;2023-04-06T03:33:29;16.63;;;5.83;;
5543;SDS011;2795;47.652;13.128;2023-04-06T03:35:56;14.27;;;5.67;;
5543;SDS011;2795;47.652;13.128;2023-04-06T03:38:22;14.30;;;5.00;;
5543;SDS011;2795;47.652;13.128;2023-04-06T03:40:49;15.90;;;6.13;;
5543;SDS011;2795;47.652;13.128;2023-04-06T03:43:16;15.33;;;5.57;;
5543;SDS011;2795;47.652;13.128;2023-04-06T03:45:42;16.47;;;6.30;;
5543;SDS011;2795;47.652;13.128;2023-04-06T03:48:09;13.10;;;5.40;;
5543;SDS011;2795;47.652;13.128;2023-04-06T03:50:36;15.33;;;5.90;;
5543;SDS011;2795;47.652;13.128;2023-04-06T03:53:02;13.00;;;5.80;;
5543;SDS011;2795;47.652;13.128;2023-04-06T03:55:29;8.60;;;5.27;;
5543;SDS011;2795;47.652;13.128;2023-04-06T03:57:56;13.47;;;5.23;;
5543;SDS011;2795;47.652;13.128;2023-04-06T04:00:22;21.53;;;7.70;;
5543;SDS011;2795;47.652;13.128;2023-04-06T04:02:49;16.73;;;7.63;;
5543;SDS011;2795;47.652;13.128;2023-04-06T04:05:17;18.17;;;6.63;;
5543;SDS011;2795;47.652;13.128;2023-04-06T04:07:43;16.53;;;6.97;;
5543;SDS011;2795;47.652;13.128;2023-04-06T04:10:10;13.43;;;6.60;;
5543;SDS011;2795;47.652;13.128;2023-04-06T04:12:37;14.63;;;5.60;;
5543;SDS011;2795;47.652;13.128;2023-04-06T04:15:03;15.93;;;6.77;;
5543;SDS011;2795;47.652;13.128;2023-04-06T04:17:31;13.90;;;6.30;;
5543;SDS011;2795;47.652;13.128;2023-04-06T04:19:57;16.53;;;5.83;;
5543;SDS011;2795;47.652;13.128;2023-04-06T04:22:24;16.83;;;7.13;;
5543;SDS011;2795;47.652;13.128;2023-04-06T04:24:51;10.80;;;5.70;;
5543;SDS011;2795;47.652;13.128;2023-04-06T04:27:17;18.30;;;6.60;;
5543;SDS011;2795;47.652;13.128;2023-04-06T04:29:44;18.80;;;6.63;;
5543;SDS011;2795;47.652;13.128;2023-04-06T04:32:11;14.13;;;5.67;;
5543;SDS011;2795;47.652;13.128;2023-04-06T04:34:37;19.03;;;6.87;;
5543;SDS011;2795;47.652;13.128;2023-04-06T04:37:06;20.20;;;7.30;;
5543;SDS011;2795;47.652;13.128;2023-04-06T04:39:33;15.47;;;6.47;;
5543;SDS011;2795;47.652;13.128;2023-04-06T04:41:59;15.17;;;5.70;;
5543;SDS011;2795;47.652;13.128;2023-04-06T04:44:26;18.27;;;6.17;;
5543;SDS011;2795;47.652;13.128;2023-04-06T04:46:52;20.97;;;7.90;;
5543;SDS011;2795;47.652;13.128;2023-04-06T04:49:19;19.53;;;8.47;;
5543;SDS011;2795;47.652;13.128;2023-04-06T04:51:46;14.80;;;6.90;;
5543;SDS011;2795;47.652;13.128;2023-04-06T04:54:12;15.37;;;7.17;;
5543;SDS011;2795;47.652;13.128;2023-04-06T04:56:39;99.60;;;23.50;;
5543;SDS011;2795;47.652;13.128;2023-04-06T04:59:06;63.37;;;19.70;;
5543;SDS011;2795;47.652;13.128;2023-04-06T05:01:33;35.83;;;12.57;;
5543;SDS011;2795;47.652;13.128;2023-04-06T05:04:19;23.53;;;8.43;;
5543;SDS011;2795;47.652;13.128;2023-04-06T05:06:46;19.37;;;7.13;;
5543;SDS011;2795;47.652;13.128;2023-04-06T05:09:13;15.70;;;6.50;;
5543;SDS011;2795;47.652;13.128;2023-04-06T05:11:39;19.50;;;6.53;;
5543;SDS011;2795;47.652;13.128;2023-04-06T05:14:06;18.50;;;6.00;;
5543;SDS011;2795;47.652;13.128;2023-04-06T05:16:33;12.37;;;6.50;;
5543;SDS011;2795;47.652;13.128;2023-04-06T05:19:00;19.60;;;8.03;;
5543;SDS011;2795;47.652;13.128;2023-04-06T05:21:27;17.53;;;7.23;;
5543;SDS011;2795;47.652;13.128;2023-04-06T05:23:54;18.00;;;7.43;;
5543;SDS011;2795;47.652;13.128;2023-04-06T05:26:21;19.40;;;7.90;;
5543;SDS011;2795;47.652;13.128;2023-04-06T05:28:47;17.73;;;7.50;;
5543;SDS011;2795;47.652;13.128;2023-04-06T05:31:14;15.97;;;7.27;;
5543;SDS011;2795;47.652;13.128;2023-04-06T05:33:42;16.93;;;7.20;;
5543;SDS011;2795;47.652;13.128;2023-04-06T05:36:09;15.33;;;6.73;;
5543;SDS011;2795;47.652;13.128;2023-04-06T05:38:39;18.90;;;7.50;;
5543;SDS011;2795;47.652;13.128;2023-04-06T05:41:06;17.60;;;7.20;;
5543;SDS011;2795;47.652;13.128;2023-04-06T05:43:32;16.80;;;7.20;;
5543;SDS011;2795;47.652;13.128;2023-04-06T05:45:59;18.20;;;7.70;;
5543;SDS011;2795;47.652;13.128;2023-04-06T05:48:25;22.33;;;9.10;;
5543;SDS011;2795;47.652;13.128;2023-04-06T05:50:52;22.50;;;9.50;;
5543;SDS011;2795;47.652;13.128;2023-04-06T05:53:19;26.20;;;9.97;;
5543;SDS011;2795;47.652;13.128;2023-04-06T05:55:47;22.53;;;9.00;;
5543;SDS011;2795;47.652;13.128;2023-04-06T05:58:13;18.57;;;8.03;;
5543;SDS011;2795;47.652;13.128;2023-04-06T06:00:40;20.60;;;8.20;;
5543;SDS011;2795;47.652;13.128;2023-04-06T06:03:09;22.20;;;8.50;;
5543;SDS011;2795;47.652;13.128;2023-04-06T06:05:36;27.60;;;9.00;;
5543;SDS011;2795;47.652;13.128;2023-04-06T06:08:02;23.20;;;8.90;;
5543;SDS011;2795;47.652;13.128;2023-04-06T06:10:29;20.03;;;8.03;;
5543;SDS011;2795;47.652;13.128;2023-04-06T06:12:56;22.50;;;8.00;;
5543;SDS011;2795;47.652;13.128;2023-04-06T06:15:23;18.03;;;7.43;;
5543;SDS011;2795;47.652;13.128;2023-04-06T06:17:49;18.20;;;7.43;;
5543;SDS011;2795;47.652;13.128;2023-04-06T06:20:16;18.07;;;7.90;;
5543;SDS011;2795;47.652;13.128;2023-04-06T06:22:43;17.70;;;8.07;;
5543;SDS011;2795;47.652;13.128;2023-04-06T06:25:09;19.40;;;7.90;;
5543;SDS011;2795;47.652;13.128;2023-04-06T06:27:36;14.17;;;8.03;;
5543;SDS011;2795;47.652;13.128;2023-04-06T06:30:03;14.30;;;7.07;;
5543;SDS011;2795;47.652;13.128;2023-04-06T06:32:31;20.53;;;8.17;;
5543;SDS011;2795;47.652;13.128;2023-04-06T06:34:58;18.67;;;8.50;;
5543;SDS011;2795;47.652;13.128;2023-04-06T06:37:25;27.80;;;8.83;;
5543;SDS011;2795;47.652;13.128;2023-04-06T06:39:53;16.83;;;9.23;;
5543;SDS011;2795;47.652;13.128;2023-04-06T06:42:19;24.57;;;10.87;;
5543;SDS011;2795;47.652;13.128;2023-04-06T06:44:46;20.53;;;8.73;;
5543;SDS011;2795;47.652;13.128;2023-04-06T06:47:13;18.25;;;8.60;;
5543;SDS011;2795;47.652;13.128;2023-04-06T06:49:39;22.23;;;10.00;;
5543;SDS011;2795;47.652;13.128;2023-04-06T06:52:06;22.73;;;9.87;;
5543;SDS011;2795;47.652;13.128;2023-04-06T06:54:33;20.63;;;9.00;;
5543;SDS011;2795;47.652;13.128;2023-04-06T06:56:59;16.10;;;8.57;;
5543;SDS011;2795;47.652;13.128;2023-04-06T06:59:26;16.23;;;8.43;;
5543;SDS011;2795;47.652;13.128;2023-04-06T07:01:53;20.33;;;8.47;;
5543;SDS011;2795;47.652;13.128;2023-04-06T07:04:19;20.00;;;8.17;;
5543;SDS011;2795;47.652;13.128;2023-04-06T07:06:46;18.30;;;7.97;;
5543;SDS011;2795;47.652;13.128;2023-04-06T07:09:13;20.50;;;9.00;;
5543;SDS011;2795;47.652;13.128;2023-04-06T07:11:40;18.77;;;7.93;;
5543;SDS011;2795;47.652;13.128;2023-04-06T07:14:06;13.73;;;7.53;;
5543;SDS011;2795;47.652;13.128;2023-04-06T07:16:33;17.40;;;8.30;;
5543;SDS011;2795;47.652;13.128;2023-04-06T07:19:00;19.47;;;8.90;;
5543;SDS011;2795;47.652;13.128;2023-04-06T07:21:27;17.27;;;8.23;;
5543;SDS011;2795;47.652;13.128;2023-04-06T07:23:53;17.40;;;7.87;;
5543;SDS011;2795;47.652;13.128;2023-04-06T07:26:20;19.93;;;8.83;;
5543;SDS011;2795;47.652;13.128;2023-04-06T07:28:47;18.67;;;8.10;;
5543;SDS011;2795;47.652;13.128;2023-04-06T07:31:13;20.97;;;9.37;;
5543;SDS011;2795;47.652;13.128;2023-04-06T07:33:40;23.07;;;9.67;;
5543;SDS011;2795;47.652;13.128;2023-04-06T07:36:07;18.60;;;7.97;;
5543;SDS011;2795;47.652;13.128;2023-04-06T07:38:33;20.83;;;9.43;;
5543;SDS011;2795;47.652;13.128;2023-04-06T07:41:00;17.83;;;8.47;;
5543;SDS011;2795;47.652;13.128;2023-04-06T07:43:30;17.70;;;8.43;;
5543;SDS011;2795;47.652;13.128;2023-04-06T07:45:57;19.10;;;8.47;;
5543;SDS011;2795;47.652;13.128;2023-04-06T07:48:23;19.47;;;8.77;;
5543;SDS011;2795;47.652;13.128;2023-04-06T07:50:50;16.83;;;8.47;;
5543;SDS011;2795;47.652;13.128;2023-04-06T07:53:17;16.80;;;7.80;;
5543;SDS011;2795;47.652;13.128;2023-04-06T07:55:43;17.03;;;8.00;;
5543;SDS011;2795;47.652;13.128;2023-04-06T07:58:10;19.40;;;7.60;;
5543;SDS011;2795;47.652;13.128;2023-04-06T08:00:37;15.73;;;7.83;;
5543;SDS011;2795;47.652;13.128;2023-04-06T08:03:03;16.63;;;8.90;;
5543;SDS011;2795;47.652;13.128;2023-04-06T08:05:30;14.33;;;7.37;;
5543;SDS011;2795;47.652;13.128;2023-04-06T08:07:57;15.07;;;7.20;;
5543;SDS011;2795;47.652;13.128;2023-04-06T08:10:23;13.90;;;6.57;;
5543;SDS011;2795;47.652;13.128;2023-04-06T08:12:50;20.70;;;9.03;;
5543;SDS011;2795;47.652;13.128;2023-04-06T08:15:17;20.87;;;8.70;;
5543;SDS011;2795;47.652;13.128;2023-04-06T08:17:44;21.83;;;8.37;;
5543;SDS011;2795;47.652;13.128;2023-04-06T08:20:11;23.60;;;8.90;;
5543;SDS011;2795;47.652;13.128;2023-04-06T08:22:38;20.23;;;8.20;;
5543;SDS011;2795;47.652;13.128;2023-04-06T08:25:04;14.00;;;7.80;;
5543;SDS011;2795;47.652;13.128;2023-04-06T08:27:31;19.37;;;7.80;;
5543;SDS011;2795;47.652;13.128;2023-04-06T08:29:58;16.77;;;7.40;;
5543;SDS011;2795;47.652;13.128;2023-04-06T08:32:25;14.67;;;7.33;;
5543;SDS011;2795;47.652;13.128;2023-04-06T08:34:55;18.70;;;7.67;;
5543;SDS011;2795;47.652;13.128;2023-04-06T08:37:22;23.20;;;8.27;;
5543;SDS011;2795;47.652;13.128;2023-04-06T08:39:48;16.97;;;7.57;;
5543;SDS011;2795;47.652;13.128;2023-04-06T08:42:19;24.53;;;9.03;;
5543;SDS011;2795;47.652;13.128;2023-04-06T08:44:48;17.63;;;8.40;;
5543;SDS011;2795;47.652;13.128;2023-04-06T08:47:15;21.17;;;8.83;;
5543;SDS011;2795;47.652;13.128;2023-04-06T08:49:42;17.80;;;8.60;;
5543;SDS011;2795;47.652;13.128;2023-04-06T08:52:10;18.93;;;8.90;;
5543;SDS011;2795;47.652;13.128;2023-04-06T08:54:37;15.80;;;8.53;;
5543;SDS011;2795;47.652;13.128;2023-04-06T08:57:04;15.53;;;7.83;;
5543;SDS011;2795;47.652;13.128;2023-04-06T08:59:32;17.60;;;7.93;;
5543;SDS011;2795;47.652;13.128;2023-04-06T09:01:59;18.27;;;8.57;;
5543;SDS011;2795;47.652;13.128;2023-04-06T09:04:29;17.43;;;8.20;;
5543;SDS011;2795;47.652;13.128;2023-04-06T09:06:57;18.50;;;8.10;;
5543;SDS011;2795;47.652;13.128;2023-04-06T09:09:23;21.97;;;8.70;;
5543;SDS011;2795;47.652;13.128;2023-04-06T09:11:51;18.03;;;8.93;;
5543;SDS011;2795;47.652;13.128;2023-04-06T09:14:39;22.93;;;9.17;;
5543;SDS011;2795;47.652;13.128;2023-04-06T09:17:05;13.17;;;7.90;;
5543;SDS011;2795;47.652;13.128;2023-04-06T09:19:32;30.93;;;8.67;;
5543;SDS011;2795;47.652;13.128;2023-04-06T09:22:03;16.83;;;8.00;;
5543;SDS011;2795;47.652;13.128;2023-04-06T09:24:43;15.30;;;7.63;;
5543;SDS011;2795;47.652;13.128;2023-04-06T09:27:17;22.47;;;8.97;;
5543;SDS011;2795;47.652;13.128;2023-04-06T09:29:44;19.40;;;7.47;;
5543;SDS011;2795;47.652;13.128;2023-04-06T09:32:11;12.23;;;7.03;;
5543;SDS011;2795;47.652;13.128;2023-04-06T09:34:38;17.03;;;8.30;;
5543;SDS011;2795;47.652;13.128;2023-04-06T09:37:12;18.20;;;8.20;;
5543;SDS011;2795;47.652;13.128;2023-04-06T09:39:42;17.33;;;8.27;;
5543;SDS011;2795;47.652;13.128;2023-04-06T09:42:33;17.97;;;8.33;;
5543;SDS011;2795;47.652;13.128;2023-04-06T09:44:59;18.80;;;8.40;;
5543;SDS011;2795;47.652;13.128;2023-04-06T09:47:25;19.63;;;8.80;;
5543;SDS011;2795;47.652;13.128;2023-04-06T09:49:58;18.57;;;7.73;;
5543;SDS011;2795;47.652;13.128;2023-04-06T09:52:26;18.00;;;8.60;;
5543;SDS011;2795;47.652;13.128;2023-04-06T09:55:04;19.30;;;8.10;;
5543;SDS011;2795;47.652;13.128;2023-04-06T09:57:32;14.73;;;7.70;;
5543;SDS011;2795;47.652;13.128;2023-04-06T10:00:12;12.60;;;7.50;;
5543;SDS011;2795;47.652;13.128;2023-04-06T10:03:03;17.53;;;8.17;;
5543;SDS011;2795;47.652;13.128;2023-04-06T10:05:40;12.93;;;7.40;;
5543;SDS011;2795;47.652;13.128;2023-04-06T10:08:09;24.37;;;9.23;;
5543;SDS011;2795;47.652;13.128;2023-04-06T10:10:37;22.33;;;8.43;;
5543;SDS011;2795;47.652;13.128;2023-04-06T10:13:04;20.07;;;8.20;;
5543;SDS011;2795;47.652;13.128;2023-04-06T10:15:31;20.20;;;8.83;;
5543;SDS011;2795;47.652;13.128;2023-04-06T10:17:58;18.40;;;7.53;;
5543;SDS011;2795;47.652;13.128;2023-04-06T10:22:55;19.90;;;7.93;;
5543;SDS011;2795;47.652;13.128;2023-04-06T10:25:26;17.33;;;7.57;;
5543;SDS011;2795;47.652;13.128;2023-04-06T10:30:28;16.10;;;8.60;;
5543;SDS011;2795;47.652;13.128;2023-04-06T10:32:55;17.80;;;9.10;;
5543;SDS011;2795;47.652;13.128;2023-04-06T10:35:22;24.77;;;9.30;;
5543;SDS011;2795;47.652;13.128;2023-04-06T10:38:00;36.63;;;15.23;;
5543;SDS011;2795;47.652;13.128;2023-04-06T10:40:28;21.53;;;9.33;;
5543;SDS011;2795;47.652;13.128;2023-04-06T10:43:40;23.43;;;8.50;;
5543;SDS011;2795;47.652;13.128;2023-04-06T10:45:55;14.67;;;7.60;;
5543;SDS011;2795;47.652;13.128;2023-04-06T10:48:23;18.00;;;8.47;;
5543;SDS011;2795;47.652;13.128;2023-04-06T10:50:53;27.13;;;9.23;;
5543;SDS011;2795;47.652;13.128;2023-04-06T10:53:20;16.87;;;8.30;;
5543;SDS011;2795;47.652;13.128;2023-04-06T10:55:52;20.77;;;9.30;;
5543;SDS011;2795;47.652;13.128;2023-04-06T10:58:25;15.27;;;8.13;;
5543;SDS011;2795;47.652;13.128;2023-04-06T11:00:53;15.87;;;8.47;;
5543;SDS011;2795;47.652;13.128;2023-04-06T11:03:21;13.47;;;7.53;;
5543;SDS011;2795;47.652;13.128;2023-04-06T11:05:48;18.70;;;9.10;;
5543;SDS011;2795;47.652;13.128;2023-04-06T11:08:25;16.70;;;8.37;;
5543;SDS011;2795;47.652;13.128;2023-04-06T11:13:42;23.37;;;9.33;;
5543;SDS011;2795;47.652;13.128;2023-04-06T11:16:15;15.77;;;8.63;;
5543;SDS011;2795;47.652;13.128;2023-04-06T11:21:17;18.40;;;9.83;;
5543;SDS011;2795;47.652;13.128;2023-04-06T11:23:45;18.37;;;8.50;;
5543;SDS011;2795;47.652;13.128;2023-04-06T11:26:12;17.87;;;8.50;;
5543;SDS011;2795;47.652;13.128;2023-04-06T11:28:41;24.30;;;9.20;;
5543;SDS011;2795;47.652;13.128;2023-04-06T11:31:09;21.73;;;9.60;;
5543;SDS011;2795;47.652;13.128;2023-04-06T11:33:38;18.00;;;8.40;;
5543;SDS011;2795;47.652;13.128;2023-04-06T11:36:05;19.60;;;8.40;;
5543;SDS011;2795;47.652;13.128;2023-04-06T11:38:32;15.97;;;8.50;;
5543;SDS011;2795;47.652;13.128;2023-04-06T11:41:00;26.13;;;10.70;;
5543;SDS011;2795;47.652;13.128;2023-04-06T11:43:30;18.60;;;9.03;;
5543;SDS011;2795;47.652;13.128;2023-04-06T11:46:01;26.47;;;9.43;;
5543;SDS011;2795;47.652;13.128;2023-04-06T11:48:32;16.87;;;8.60;;
5543;SDS011;2795;47.652;13.128;2023-04-06T11:51:10;20.10;;;9.13;;
5543;SDS011;2795;47.652;13.128;2023-04-06T11:53:45;16.67;;;8.33;;
5543;SDS011;2795;47.652;13.128;2023-04-06T11:56:22;15.63;;;8.83;;
5543;SDS011;2795;47.652;13.128;2023-04-06T11:58:58;21.90;;;9.23;;
5543;SDS011;2795;47.652;13.128;2023-04-06T12:01:26;20.00;;;8.60;;
5543;SDS011;2795;47.652;13.128;2023-04-06T12:03:53;19.80;;;8.47;;
5543;SDS011;2795;47.652;13.128;2023-04-06T12:06:20;20.97;;;8.53;;
5543;SDS011;2795;47.652;13.128;2023-04-06T12:08:46;22.17;;;8.37;;
5543;SDS011;2795;47.652;13.128;2023-04-06T12:11:13;17.30;;;8.70;;
5543;SDS011;2795;47.652;13.128;2023-04-06T12:13:40;21.13;;;9.07;;
5543;SDS011;2795;47.652;13.128;2023-04-06T12:16:06;17.40;;;7.77;;
5543;SDS011;2795;47.652;13.128;2023-04-06T12:18:33;18.60;;;8.90;;
5543;SDS011;2795;47.652;13.128;2023-04-06T12:21:00;19.13;;;8.90;;
5543;SDS011;2795;47.652;13.128;2023-04-06T12:23:26;18.70;;;8.57;;
5543;SDS011;2795;47.652;13.128;2023-04-06T12:25:53;21.23;;;8.77;;
5543;SDS011;2795;47.652;13.128;2023-04-06T12:28:20;17.80;;;8.03;;
5543;SDS011;2795;47.652;13.128;2023-04-06T12:30:49;20.37;;;8.13;;
5543;SDS011;2795;47.652;13.128;2023-04-06T12:33:16;19.70;;;8.37;;
5543;SDS011;2795;47.652;13.128;2023-04-06T12:35:43;21.43;;;8.70;;
5543;SDS011;2795;47.652;13.128;2023-04-06T12:38:10;13.17;;;6.40;;
5543;SDS011;2795;47.652;13.128;2023-04-06T12:40:37;20.57;;;8.57;;
5543;SDS011;2795;47.652;13.128;2023-04-06T12:43:05;18.00;;;8.53;;
5543;SDS011;2795;47.652;13.128;2023-04-06T12:45:32;22.83;;;8.57;;
5543;SDS011;2795;47.652;13.128;2023-04-06T12:47:58;20.07;;;7.97;;
5543;SDS011;2795;47.652;13.128;2023-04-06T12:50:25;19.07;;;8.53;;
5543;SDS011;2795;47.652;13.128;2023-04-06T12:52:52;27.13;;;9.17;;
5543;SDS011;2795;47.652;13.128;2023-04-06T12:55:19;16.73;;;8.30;;
5543;SDS011;2795;47.652;13.128;2023-04-06T12:57:47;20.77;;;8.07;;
5543;SDS011;2795;47.652;13.128;2023-04-06T13:00:14;17.17;;;8.10;;
5543;SDS011;2795;47.652;13.128;2023-04-06T13:02:41;17.47;;;7.37;;
5543;SDS011;2795;47.652;13.128;2023-04-06T13:05:14;15.10;;;7.03;;
5543;SDS011;2795;47.652;13.128;2023-04-06T13:07:45;18.67;;;8.10;;
5543;SDS011;2795;47.652;13.128;2023-04-06T13:10:13;14.03;;;7.60;;
5543;SDS011;2795;47.652;13.128;2023-04-06T13:12:39;12.40;;;7.00;;
5543;SDS011;2795;47.652;13.128;2023-04-06T13:15:06;16.23;;;7.10;;
5543;SDS011;2795;47.652;13.128;2023-04-06T13:17:33;16.40;;;7.90;;
5543;SDS011;2795;47.652;13.128;2023-04-06T13:20:00;15.33;;;8.10;;
5543;SDS011;2795;47.652;13.128;2023-04-06T13:22:26;17.47;;;7.77;;
5543;SDS011;2795;47.652;13.128;2023-04-06T13:24:53;21.60;;;8.07;;
5543;SDS011;2795;47.652;13.128;2023-04-06T13:27:20;17.40;;;8.03;;
5543;SDS011;2795;47.652;13.128;2023-04-06T13:29:47;12.87;;;7.03;;
5543;SDS011;2795;47.652;13.128;2023-04-06T13:32:14;15.57;;;7.90;;
5543;SDS011;2795;47.652;13.128;2023-04-06T13:34:40;14.33;;;8.23;;
5543;SDS011;2795;47.652;13.128;2023-04-06T13:37:12;19.07;;;9.30;;
5543;SDS011;2795;47.652;13.128;2023-04-06T13:39:39;16.10;;;8.23;;
5543;SDS011;2795;47.652;13.128;2023-04-06T13:42:06;18.73;;;8.80;;
5543;SDS011;2795;47.652;13.128;2023-04-06T13:44:33;14.67;;;7.43;;
5543;SDS011;2795;47.652;13.128;2023-04-06T13:46:59;15.13;;;8.37;;
5543;SDS011;2795;47.652;13.128;2023-04-06T13:49:26;15.57;;;7.83;;
5543;SDS011;2795;47.652;13.128;2023-04-06T13:51:53;25.07;;;9.43;;
5543;SDS011;2795;47.652;13.128;2023-04-06T13:54:20;18.30;;;7.87;;
5543;SDS011;2795;47.652;13.128;2023-04-06T13:56:46;20.03;;;8.80;;
5543;SDS011;2795;47.652;13.128;2023-04-06T13:59:13;15.23;;;7.20;;
5543;SDS011;2795;47.652;13.128;2023-04-06T14:01:40;13.83;;;8.33;;
5543;SDS011;2795;47.652;13.128;2023-04-06T14:04:07;15.57;;;7.73;;
5543;SDS011;2795;47.652;13.128;2023-04-06T14:06:33;25.53;;;10.20;;
5543;SDS011;2795;47.652;13.128;2023-04-06T14:09:00;21.10;;;9.40;;
5543;SDS011;2795;47.652;13.128;2023-04-06T14:11:27;26.60;;;14.00;;
5543;SDS011;2795;47.652;13.128;2023-04-06T14:13:54;17.47;;;8.27;;
5543;SDS011;2795;47.652;13.128;2023-04-06T14:16:23;17.57;;;8.70;;
5543;SDS011;2795;47.652;13.128;2023-04-06T14:18:51;16.30;;;7.80;;
5543;SDS011;2795;47.652;13.128;2023-04-06T14:21:18;19.03;;;8.27;;
5543;SDS011;2795;47.652;13.128;2023-04-06T14:23:45;22.67;;;12.07;;
5543;SDS011;2795;47.652;13.128;2023-04-06T14:26:12;17.60;;;8.47;;
5543;SDS011;2795;47.652;13.128;2023-04-06T14:28:40;17.27;;;8.27;;
5543;SDS011;2795;47.652;13.128;2023-04-06T14:31:11;23.77;;;11.67;;
5543;SDS011;2795;47.652;13.128;2023-04-06T14:33:39;28.30;;;14.80;;
5543;SDS011;2795;47.652;13.128;2023-04-06T14:36:06;16.77;;;8.23;;
5543;SDS011;2795;47.652;13.128;2023-04-06T14:38:34;22.20;;;8.97;;
5543;SDS011;2795;47.652;13.128;2023-04-06T14:41:00;18.10;;;9.00;;
5543;SDS011;2795;47.652;13.128;2023-04-06T14:43:27;19.87;;;10.27;;
5543;SDS011;2795;47.652;13.128;2023-04-06T14:45:54;17.60;;;8.43;;
5543;SDS011;2795;47.652;13.128;2023-04-06T14:48:21;22.90;;;12.50;;
5543;SDS011;2795;47.652;13.128;2023-04-06T14:50:56;19.53;;;9.67;;
5543;SDS011;2795;47.652;13.128;2023-04-06T14:53:23;22.47;;;9.10;;
5543;SDS011;2795;47.652;13.128;2023-04-06T14:55:50;52.33;;;18.60;;
5543;SDS011;2795;47.652;13.128;2023-04-06T14:58:21;30.77;;;14.50;;
5543;SDS011;2795;47.652;13.128;2023-04-06T15:00:49;61.03;;;25.77;;